BGKKBIRK

Guest
Details From BGKK - Kulusuk
To BIRK - Reykjavik
Flight Number -
Tags Generated
Created
Modified
Stats Distance 396 nm / 734 km
Max Altitude 0 ft / 0 m
Waypoints 3
Social Downloads 3
Likes 1
Share VATSIM

Download

Looking for another format? Having issues loading an existing format? Contact us
Advertisement - Login to hide

Notes

Generated

Route

BGKK KEF14 BIRK

ID Type Via Altitude Latitude Longitude Leg Dist Tot Dist Heading (true) Name
O BGKK APT - 0 ft / 0 m 65.57304˚ -37.13664˚ - 0 nm - -
KEF14 FIX - 0 ft / 0 m 64.16967˚ -22.24945˚ 387 nm 387 nm 96° / 109° -
O BIRK APT - 0 ft / 0 m 64.12743˚ -21.94699˚ 8 nm 396 nm 108° / 108° -

Altitude Profile

Advertisement - Login to hide

Weather


0- 5 10 15 20 25 30 35+ Temperature / ° C

Clouds and Precipitation
Forecast for 2017-12-15 06:00 UTC. Updated 2 hours ago

Ground ~20,000 ft ~40,000 ft Winds

BGKK

Details ICAO BGKK
Name Kulusuk
Region Greenland
Timezone America/Godthab (UTC-3.0)
Stats Elevation 114 ft / 35 m (AMSL)
Location 65.573608° -37.123608°
Runways 1
Magnetic Variation 22.318° W

METAR

BGKK 150450Z AUTO 08020KT 9999NDV -FZRA OVC020/// M03/M05 Q1014

Decode

TAF

Not found

Departure Runways

ID Width Length Bearing (true) Bearing (mag) Surface Threshold Offset Overrun Length
11 98 ft / 30 m 3,956 ft / 1,206 m 83.99° 106.31° Gravel 0 ft / 0 m 0 ft / 0 m
29 98 ft / 30 m 3,956 ft / 1,206 m 264.01° 286.33° Gravel 0 ft / 0 m 0 ft / 0 m

BIRK

Details ICAO BIRK (RKV)
Name Reykjavik
Region Iceland
Timezone Atlantic/Reykjavik (UTC+0.0)
Stats Elevation 47 ft / 14 m (AMSL)
Location 64.129644° -21.940609°
Runways 3
Magnetic Variation 13.774° W

METAR

BIRK 150500Z 00000KT CAVOK M06/M11 Q1014

Decode

TAF

TAF BIRK 150111Z 1503/1603 09005KT CAVOK TXM04/1519Z TNM07/1510Z

Decode

Destination Runways

ID Width Length Bearing (true) Bearing (mag) Surface Threshold Offset Overrun Length
01 148 ft / 45 m 5,129 ft / 1,563 m 355.27° 9.04° Asphalt 262 ft / 80 m 0 ft / 0 m
06 98 ft / 30 m 2,800 ft / 853 m 46.35° 60.12° Asphalt 299 ft / 91 m 0 ft / 0 m
13 148 ft / 45 m 4,023 ft / 1,226 m 116.28° 130.05° Asphalt 0 ft / 0 m 0 ft / 0 m
19 148 ft / 45 m 5,129 ft / 1,563 m 175.27° 189.04° Asphalt 0 ft / 0 m 0 ft / 0 m
24 98 ft / 30 m 2,800 ft / 853 m 226.37° 240.14° Asphalt 0 ft / 0 m 0 ft / 0 m
31 148 ft / 45 m 4,023 ft / 1,226 m 296.30° 310.07° Asphalt 213 ft / 65 m 0 ft / 0 m

Approach Navaids

Runway Type Ident Frequency Range Bearing (true) Bearing (mag) Slope Elevation
13 Localiser IRE 109.10 MHz 18 nm / 33 km 116.29° 130.06° - 38 ft / 12 m (AMSL)
19 Localiser IRK 109.90 MHz 18 nm / 33 km 175.26° 189.03° - 20 ft / 6 m (AMSL)
19 Glidescope IRK 109.90 MHz 10 nm / 19 km 175.26° 189.03° 3.50° 48 ft / 15 m (AMSL)

Popular Alternatives